createdAt,value
2022-09-15T00:00:11.872Z,13.73
2022-09-15T00:02:38.918Z,13.69
2022-09-15T00:05:06.075Z,13.71
2022-09-15T00:07:32.942Z,13.71
2022-09-15T00:09:59.858Z,13.68
2022-09-15T00:12:27.972Z,13.71
2022-09-15T00:14:54.969Z,13.71
2022-09-15T00:17:21.961Z,13.70
2022-09-15T00:19:48.891Z,13.70
2022-09-15T00:22:16.183Z,13.70
2022-09-15T00:24:43.127Z,13.72
2022-09-15T00:27:10.024Z,13.70
2022-09-15T00:29:36.980Z,13.69
2022-09-15T00:32:04.031Z,13.69
2022-09-15T00:34:30.924Z,13.64
2022-09-15T00:36:57.800Z,13.66
2022-09-15T00:39:24.759Z,13.66
2022-09-15T00:41:51.807Z,13.43
2022-09-15T00:44:18.632Z,13.69
2022-09-15T00:47:09.335Z,13.68
2022-09-15T00:49:39.262Z,13.67
2022-09-15T00:52:08.046Z,13.69
2022-09-15T00:54:57.920Z,13.65
2022-09-15T00:57:35.985Z,13.69
2022-09-15T01:02:54.352Z,13.71
2022-09-15T01:05:25.528Z,13.67
2022-09-15T01:08:14.291Z,13.71
2022-09-15T01:10:41.439Z,13.70
2022-09-15T01:13:12.805Z,13.72
2022-09-15T01:19:19.556Z,13.75
2022-09-15T01:21:53.663Z,13.75
2022-09-15T01:24:35.008Z,13.79
2022-09-15T01:27:40.500Z,13.77
2022-09-15T01:30:14.461Z,13.55
2022-09-15T01:33:15.038Z,13.47
2022-09-15T01:35:48.258Z,13.38
2022-09-15T01:38:36.716Z,13.39
2022-09-15T01:41:19.450Z,13.36
2022-09-15T01:44:11.923Z,13.25
2022-09-15T01:46:50.148Z,13.08
2022-09-15T01:49:22.451Z,13.05
2022-09-15T01:51:52.481Z,13.01
2022-09-15T01:54:33.964Z,12.98
2022-09-15T01:57:03.231Z,12.90
2022-09-15T01:59:31.457Z,12.89
2022-09-15T02:02:05.473Z,12.86
2022-09-15T02:04:36.806Z,12.80
2022-09-15T02:07:11.798Z,12.77
2022-09-15T02:09:47.055Z,12.73
2022-09-15T02:12:34.058Z,12.72
2022-09-15T02:15:08.020Z,12.71
2022-09-15T02:17:39.089Z,12.72
2022-09-15T02:20:33.457Z,12.80
2022-09-15T02:23:08.587Z,12.82
2022-09-15T02:25:45.076Z,12.82
2022-09-15T02:28:13.972Z,12.85
2022-09-15T02:30:45.024Z,12.88
2022-09-15T02:33:19.937Z,12.86
2022-09-15T02:35:47.564Z,12.94
2022-09-15T02:38:15.281Z,12.96
2022-09-15T02:40:43.918Z,12.89
2022-09-15T02:43:20.010Z,12.97
2022-09-15T02:45:47.025Z,12.95
2022-09-15T02:48:13.973Z,12.97
2022-09-15T02:50:41.436Z,12.96
2022-09-15T02:53:09.141Z,12.96
2022-09-15T02:55:36.237Z,12.96
2022-09-15T02:58:03.214Z,12.98
2022-09-15T03:00:31.261Z,13.00
2022-09-15T03:02:58.659Z,13.01
2022-09-15T03:05:30.265Z,13.03
2022-09-15T03:07:57.437Z,13.07
2022-09-15T03:10:25.954Z,13.07
2022-09-15T03:12:54.522Z,13.03
2022-09-15T03:15:24.544Z,13.06
2022-09-15T03:17:52.422Z,13.08
2022-09-15T03:20:22.744Z,13.10
2022-09-15T03:22:50.093Z,13.10
2022-09-15T03:25:17.828Z,13.12
2022-09-15T03:27:45.030Z,13.13
2022-09-15T03:30:12.844Z,13.14
2022-09-15T03:32:40.338Z,13.08
2022-09-15T03:35:07.977Z,13.07
2022-09-15T03:37:35.281Z,13.05
2022-09-15T03:40:03.895Z,13.07
2022-09-15T03:42:31.109Z,13.07
2022-09-15T03:44:58.074Z,12.91
2022-09-15T03:47:25.381Z,12.94
2022-09-15T03:49:52.298Z,12.94
2022-09-15T03:52:19.175Z,12.92
2022-09-15T03:54:48.046Z,12.84
2022-09-15T03:57:15.000Z,12.92
2022-09-15T03:59:41.896Z,12.95
2022-09-15T04:02:08.822Z,12.96
2022-09-15T04:04:36.080Z,12.94
2022-09-15T04:07:02.980Z,13.00
2022-09-15T04:09:30.662Z,13.05
2022-09-15T04:11:57.576Z,13.08
2022-09-15T04:14:24.580Z,13.08
2022-09-15T04:16:51.567Z,13.12
2022-09-15T04:19:18.476Z,13.13
2022-09-15T04:21:47.471Z,13.12
2022-09-15T04:24:14.480Z,13.08
2022-09-15T04:26:41.806Z,13.10
2022-09-15T04:29:14.397Z,13.07
2022-09-15T04:31:41.893Z,13.03
2022-09-15T04:34:09.494Z,13.04
2022-09-15T04:36:36.588Z,13.01
2022-09-15T04:39:04.115Z,12.92
2022-09-15T04:41:31.002Z,12.94
2022-09-15T04:43:58.688Z,12.87
2022-09-15T04:46:26.141Z,12.80
2022-09-15T04:48:53.127Z,12.77
2022-09-15T04:51:22.173Z,12.83
2022-09-15T04:53:50.258Z,12.88
2022-09-15T04:56:25.679Z,12.57
2022-09-15T04:58:58.253Z,12.71
2022-09-15T05:01:30.918Z,12.62
2022-09-15T05:03:58.108Z,12.66
2022-09-15T05:06:27.775Z,12.69
2022-09-15T05:08:56.840Z,12.54
2022-09-15T05:11:24.679Z,12.65
2022-09-15T05:13:51.881Z,12.70
2022-09-15T05:16:27.278Z,12.74
2022-09-15T05:18:56.932Z,12.59
2022-09-15T05:21:24.372Z,12.69
2022-09-15T05:23:52.134Z,12.72
2022-09-15T05:26:22.668Z,12.75
2022-09-15T05:28:50.285Z,12.78
2022-09-15T05:31:23.598Z,12.83
2022-09-15T05:33:52.795Z,12.85
2022-09-15T05:36:23.818Z,12.72
2022-09-15T05:38:52.398Z,12.79
2022-09-15T05:41:20.926Z,12.76
2022-09-15T05:43:48.953Z,12.86
2022-09-15T05:46:18.106Z,12.84
2022-09-15T05:48:45.318Z,12.81
2022-09-15T05:51:13.093Z,12.71
2022-09-15T05:53:40.241Z,12.72
2022-09-15T05:56:12.151Z,12.87
2022-09-15T05:58:44.605Z,12.89
2022-09-15T06:01:17.811Z,12.94
2022-09-15T06:03:45.125Z,12.98
2022-09-15T06:06:12.353Z,13.02
2022-09-15T06:08:44.254Z,13.00
2022-09-15T06:11:13.948Z,12.97
2022-09-15T06:13:41.417Z,12.95
2022-09-15T06:16:17.214Z,13.01
2022-09-15T06:18:44.266Z,12.91
2022-09-15T06:21:17.058Z,12.84
2022-09-15T06:23:48.586Z,12.79
2022-09-15T06:26:19.141Z,12.78
2022-09-15T06:28:55.008Z,12.78
2022-09-15T06:31:22.953Z,12.70
2022-09-15T06:33:53.094Z,12.75
2022-09-15T06:36:22.613Z,12.75
2022-09-15T06:38:50.047Z,12.76
2022-09-15T06:41:17.095Z,12.73
2022-09-15T06:43:45.193Z,12.84
2022-09-15T06:46:15.291Z,12.66
2022-09-15T06:48:46.335Z,12.73
2022-09-15T06:51:17.328Z,12.77
2022-09-15T06:53:45.055Z,12.88
2022-09-15T06:56:16.835Z,12.88
2022-09-15T06:58:46.020Z,12.85
2022-09-15T07:01:18.758Z,12.80
2022-09-15T07:03:45.767Z,12.72
2022-09-15T07:06:13.274Z,12.84
2022-09-15T07:08:40.982Z,12.84
2022-09-15T07:11:09.698Z,12.95
2022-09-15T07:13:37.521Z,12.87
2022-09-15T07:16:06.866Z,12.97
2022-09-15T07:18:37.584Z,13.06
2022-09-15T07:21:09.575Z,13.03
2022-09-15T07:23:36.749Z,13.10
2022-09-15T07:26:06.920Z,13.16
2022-09-15T07:28:33.971Z,13.19
2022-09-15T07:31:01.146Z,13.22
2022-09-15T07:33:28.884Z,13.20
2022-09-15T07:35:55.924Z,13.27
2022-09-15T07:38:22.813Z,13.36
2022-09-15T07:40:49.962Z,13.35
2022-09-15T07:43:16.876Z,13.43
2022-09-15T07:45:43.836Z,13.46
2022-09-15T07:48:11.023Z,13.54
2022-09-15T07:50:38.282Z,13.35
2022-09-15T07:53:05.212Z,13.57
2022-09-15T07:55:33.002Z,13.55
2022-09-15T07:58:01.184Z,13.68
2022-09-15T08:00:28.448Z,13.72
2022-09-15T08:02:56.465Z,13.78
2022-09-15T08:05:28.322Z,13.83
2022-09-15T08:07:56.392Z,13.82
2022-09-15T08:10:25.341Z,13.88
2022-09-15T08:12:53.063Z,13.94
2022-09-15T08:15:20.476Z,13.83
2022-09-15T08:17:47.525Z,13.92
2022-09-15T08:20:14.473Z,13.94
2022-09-15T08:22:42.450Z,13.86
2022-09-15T08:25:09.838Z,13.90
2022-09-15T08:27:38.105Z,13.92
2022-09-15T08:30:06.257Z,13.91
2022-09-15T08:32:33.651Z,13.91
2022-09-15T08:35:00.561Z,14.01
2022-09-15T08:37:27.521Z,14.14
2022-09-15T08:39:54.400Z,14.21
2022-09-15T08:42:24.196Z,14.11
2022-09-15T08:44:59.759Z,14.25
2022-09-15T08:47:36.875Z,14.10
2022-09-15T08:50:18.795Z,14.14
2022-09-15T08:52:52.546Z,13.98
2022-09-15T08:55:26.888Z,14.09
2022-09-15T08:57:54.554Z,13.92
2022-09-15T09:00:21.678Z,14.09
2022-09-15T09:03:10.264Z,14.08
2022-09-15T09:05:55.436Z,13.86
2022-09-15T09:08:34.330Z,14.07
2022-09-15T09:11:16.473Z,14.09
2022-09-15T09:14:13.616Z,14.18
2022-09-15T09:17:08.098Z,13.93
2022-09-15T09:19:53.397Z,13.92
2022-09-15T09:22:28.706Z,14.01
2022-09-15T09:24:58.673Z,14.06
2022-09-15T09:27:29.975Z,14.08
2022-09-15T09:30:19.315Z,14.07
2022-09-15T09:33:07.484Z,14.18
2022-09-15T09:35:46.317Z,14.26
2022-09-15T09:38:22.769Z,14.36
2022-09-15T09:40:49.886Z,14.42
2022-09-15T09:43:17.115Z,14.58
2022-09-15T09:45:45.940Z,14.69
2022-09-15T09:48:20.620Z,14.75
2022-09-15T09:50:49.747Z,14.82
2022-09-15T09:53:26.387Z,14.90
2022-09-15T09:56:15.442Z,14.82
2022-09-15T09:58:42.924Z,14.77
2022-09-15T10:01:15.243Z,14.85
2022-09-15T10:03:43.910Z,14.86
2022-09-15T10:06:22.364Z,14.83
2022-09-15T10:08:58.777Z,14.79
2022-09-15T10:11:40.935Z,14.86
2022-09-15T10:14:19.120Z,14.72
2022-09-15T10:17:04.721Z,14.77
2022-09-15T10:19:35.435Z,14.77
2022-09-15T10:22:03.432Z,14.72
2022-09-15T10:24:39.938Z,14.71
2022-09-15T10:27:29.849Z,14.72
2022-09-15T10:30:16.637Z,14.74
2022-09-15T10:32:43.627Z,14.56
2022-09-15T10:35:11.593Z,14.60
2022-09-15T10:38:17.238Z,14.75
2022-09-15T10:40:52.250Z,14.91
2022-09-15T10:43:28.213Z,14.96
2022-09-15T10:46:26.606Z,14.75
2022-09-15T10:49:05.507Z,14.91
2022-09-15T10:51:51.084Z,15.00
2022-09-15T10:54:17.930Z,15.01
2022-09-15T10:56:55.271Z,15.00
2022-09-15T10:59:36.014Z,15.03
2022-09-15T11:02:18.291Z,15.07
2022-09-15T11:05:11.743Z,14.97
2022-09-15T11:07:55.371Z,14.78
2022-09-15T11:10:47.197Z,14.58
2022-09-15T11:13:39.968Z,14.28
2022-09-15T11:16:09.964Z,14.33
2022-09-15T11:18:58.541Z,14.38
2022-09-15T11:21:46.607Z,14.39
2022-09-15T11:24:48.069Z,14.21
2022-09-15T11:27:22.822Z,14.17
2022-09-15T11:30:11.383Z,14.20
2022-09-15T11:32:46.438Z,14.21
2022-09-15T11:35:45.257Z,14.21
2022-09-15T11:38:34.518Z,14.31
2022-09-15T11:41:26.521Z,14.37
2022-09-15T11:44:30.613Z,14.21
2022-09-15T11:47:24.856Z,14.41
2022-09-15T11:50:08.180Z,14.44
2022-09-15T11:52:55.206Z,14.49
2022-09-15T11:55:40.757Z,14.67
2022-09-15T11:58:45.245Z,14.83
2022-09-15T12:01:12.171Z,15.01
2022-09-15T12:03:54.420Z,15.12
2022-09-15T12:06:47.902Z,15.22
2022-09-15T12:09:17.986Z,15.33
2022-09-15T12:11:58.512Z,15.33
2022-09-15T12:14:41.428Z,15.48
2022-09-15T12:17:33.599Z,15.57
2022-09-15T12:20:16.061Z,15.75
2022-09-15T12:22:47.122Z,15.98
2022-09-15T12:25:24.109Z,16.13
2022-09-15T12:28:22.445Z,16.11
2022-09-15T12:31:10.922Z,16.13
2022-09-15T12:33:53.778Z,16.06
2022-09-15T12:36:31.486Z,16.12
2022-09-15T12:38:59.904Z,16.18
2022-09-15T12:41:27.619Z,16.19
2022-09-15T12:44:03.836Z,16.24
2022-09-15T12:46:31.111Z,16.22
2022-09-15T12:49:03.226Z,16.23
2022-09-15T12:51:30.877Z,16.27
2022-09-15T12:54:07.509Z,16.34
2022-09-15T12:56:35.317Z,16.31
2022-09-15T12:59:07.730Z,16.36
2022-09-15T13:01:47.800Z,16.57
2022-09-15T13:04:41.514Z,16.65
2022-09-15T13:07:18.609Z,16.96
2022-09-15T13:10:04.898Z,17.17
2022-09-15T13:12:38.261Z,17.22
2022-09-15T13:15:13.261Z,17.08
2022-09-15T13:17:44.515Z,16.32
2022-09-15T13:20:18.105Z,16.48
2022-09-15T13:22:51.048Z,16.21
2022-09-15T13:25:26.294Z,16.23
2022-09-15T13:27:54.822Z,15.76
2022-09-15T13:30:22.182Z,15.83
2022-09-15T13:33:06.749Z,15.64
2022-09-15T13:35:42.720Z,15.62
2022-09-15T13:38:22.676Z,15.62
2022-09-15T13:41:19.370Z,15.35
2022-09-15T13:43:52.051Z,15.54
2022-09-15T13:46:28.977Z,15.40
2022-09-15T13:49:33.340Z,15.43
2022-09-15T13:52:14.264Z,15.47
2022-09-15T13:55:17.323Z,15.59
2022-09-15T14:00:45.150Z,15.44
2022-09-15T14:03:17.469Z,15.49
2022-09-15T14:05:45.600Z,15.54
2022-09-15T14:08:29.036Z,15.34
2022-09-15T14:11:01.245Z,15.49
2022-09-15T14:13:30.103Z,15.61
2022-09-15T14:15:58.744Z,15.64
2022-09-15T14:18:25.953Z,15.35
2022-09-15T14:21:04.713Z,15.46
2022-09-15T14:23:32.841Z,15.54
2022-09-15T14:26:02.008Z,15.51
2022-09-15T14:28:32.478Z,15.38
2022-09-15T14:31:01.284Z,15.24
2022-09-15T14:33:40.205Z,15.18
2022-09-15T14:36:34.529Z,15.17
2022-09-15T14:39:17.998Z,15.14
2022-09-15T14:41:45.577Z,15.19
2022-09-15T14:47:23.197Z,14.93
2022-09-15T14:50:11.545Z,14.86
2022-09-15T14:52:41.573Z,14.93
2022-09-15T14:55:15.630Z,14.83
2022-09-15T14:57:51.679Z,14.70
2022-09-15T15:00:23.680Z,14.78
2022-09-15T15:02:56.917Z,14.64
2022-09-15T15:05:40.794Z,14.52
2022-09-15T15:08:13.045Z,14.67
2022-09-15T15:10:41.357Z,14.57
2022-09-15T15:13:16.317Z,14.51
2022-09-15T15:15:44.788Z,14.44
2022-09-15T15:18:47.463Z,14.35
2022-09-15T15:21:37.321Z,14.35
2022-09-15T15:24:13.174Z,14.16
2022-09-15T15:26:42.479Z,14.11
2022-09-15T15:29:39.648Z,13.88
2022-09-15T15:32:12.094Z,13.83
2022-09-15T15:34:39.195Z,13.64
2022-09-15T15:37:29.115Z,13.58
2022-09-15T15:39:58.871Z,13.43
2022-09-15T15:42:26.771Z,13.32
2022-09-15T15:45:09.915Z,13.13
2022-09-15T15:47:37.223Z,13.07
2022-09-15T15:50:20.942Z,12.97
2022-09-15T15:52:49.492Z,12.83
2022-09-15T15:55:20.044Z,12.74
2022-09-15T15:57:50.308Z,12.60
2022-09-15T16:00:26.561Z,12.50
2022-09-15T16:02:54.204Z,12.38
2022-09-15T16:05:25.359Z,12.31
2022-09-15T16:07:53.713Z,12.20
2022-09-15T16:10:24.600Z,12.08
2022-09-15T16:12:52.141Z,12.00
2022-09-15T16:15:21.399Z,11.91
2022-09-15T16:17:49.105Z,11.83
2022-09-15T16:20:17.002Z,11.77
2022-09-15T16:22:44.244Z,11.69
2022-09-15T16:25:28.847Z,11.62
2022-09-15T16:27:55.940Z,11.55
2022-09-15T16:30:23.061Z,11.47
2022-09-15T16:32:50.012Z,11.40
2022-09-15T16:35:51.203Z,11.36
2022-09-15T16:38:19.846Z,11.29
2022-09-15T16:40:47.993Z,11.22
2022-09-15T16:43:21.673Z,11.18
2022-09-15T16:45:49.830Z,11.13
2022-09-15T16:48:17.377Z,11.07
2022-09-15T16:51:01.719Z,11.03
2022-09-15T16:53:32.809Z,10.99
2022-09-15T16:55:59.867Z,10.95
2022-09-15T16:58:26.892Z,10.93
2022-09-15T17:00:53.891Z,10.91
2022-09-15T17:03:24.673Z,10.86
2022-09-15T17:05:57.550Z,10.85
2022-09-15T17:08:31.333Z,10.82
2022-09-15T17:11:00.504Z,10.80
2022-09-15T17:13:30.691Z,10.78
2022-09-15T17:15:58.852Z,10.75
2022-09-15T17:18:26.992Z,10.69
2022-09-15T17:20:54.363Z,10.71
2022-09-15T17:23:25.464Z,10.68
2022-09-15T17:25:57.498Z,10.66
2022-09-15T17:28:27.247Z,10.64
2022-09-15T17:30:59.038Z,10.62
2022-09-15T17:33:27.631Z,10.59
2022-09-15T17:35:55.472Z,10.55
2022-09-15T17:38:22.646Z,10.52
2022-09-15T17:40:50.638Z,10.50
2022-09-15T17:43:19.909Z,10.52
2022-09-15T17:45:48.138Z,10.48
2022-09-15T17:48:16.015Z,10.46
2022-09-15T17:50:43.984Z,10.43
2022-09-15T17:53:22.862Z,10.41
2022-09-15T17:55:51.050Z,10.39
2022-09-15T17:58:18.464Z,10.33
2022-09-15T18:00:46.733Z,10.31
2022-09-15T18:03:33.324Z,10.29
2022-09-15T18:06:04.196Z,10.26
2022-09-15T18:08:32.985Z,10.22
2022-09-15T18:11:01.124Z,10.22
2022-09-15T18:13:31.022Z,10.15
2022-09-15T18:16:03.027Z,10.17
2022-09-15T18:18:30.513Z,10.13
2022-09-15T18:20:58.320Z,10.10
2022-09-15T18:23:28.529Z,10.08
2022-09-15T18:25:55.667Z,10.06
2022-09-15T18:28:22.750Z,10.04
2022-09-15T18:30:50.429Z,10.02
2022-09-15T18:33:22.977Z,10.01
2022-09-15T18:35:53.046Z,9.99
2022-09-15T18:38:20.800Z,9.94
2022-09-15T18:40:57.151Z,9.96
2022-09-15T18:43:27.157Z,9.93
2022-09-15T18:46:01.380Z,9.93
2022-09-15T18:48:28.954Z,9.89
2022-09-15T18:50:56.396Z,9.89
2022-09-15T18:53:23.520Z,9.89
2022-09-15T18:55:50.620Z,9.86
2022-09-15T18:58:19.563Z,9.86
2022-09-15T19:00:46.862Z,9.83
2022-09-15T19:03:14.357Z,9.84
2022-09-15T19:05:41.577Z,9.82
2022-09-15T19:08:09.322Z,9.80
2022-09-15T19:10:38.438Z,9.78
2022-09-15T19:13:05.454Z,9.78
2022-09-15T19:15:34.577Z,9.75
2022-09-15T19:18:02.191Z,9.74
2022-09-15T19:20:29.446Z,9.74
2022-09-15T19:22:57.369Z,9.73
2022-09-15T19:25:24.297Z,9.72
2022-09-15T19:27:51.251Z,9.67
2022-09-15T19:30:18.174Z,9.70
2022-09-15T19:32:45.071Z,9.70
2022-09-15T19:35:12.073Z,9.70
2022-09-15T19:37:41.326Z,9.66
2022-09-15T19:40:11.768Z,9.67
2022-09-15T19:42:40.420Z,9.67
2022-09-15T19:45:09.073Z,9.65
2022-09-15T19:47:36.688Z,9.66
2022-09-15T19:50:06.122Z,9.62
2022-09-15T19:52:33.240Z,9.67
2022-09-15T19:55:00.295Z,9.64
2022-09-15T19:57:27.282Z,9.67
2022-09-15T19:59:54.152Z,9.67
2022-09-15T20:02:21.104Z,9.68
2022-09-15T20:05:01.806Z,9.67
2022-09-15T20:07:32.139Z,9.62
2022-09-15T20:09:59.082Z,9.65
2022-09-15T20:12:26.835Z,9.61
2022-09-15T20:14:54.549Z,9.66
2022-09-15T20:17:21.460Z,9.68
2022-09-15T20:19:48.528Z,9.70
2022-09-15T20:22:15.476Z,9.72
2022-09-15T20:24:42.411Z,9.71
2022-09-15T20:27:09.513Z,9.72
2022-09-15T20:29:36.383Z,9.72
2022-09-15T20:34:52.063Z,9.70
2022-09-15T20:37:19.180Z,9.70
2022-09-15T20:39:49.277Z,9.69
2022-09-15T20:42:16.215Z,9.69
2022-09-15T20:44:43.118Z,9.69
2022-09-15T20:47:09.990Z,9.69
2022-09-15T20:49:36.953Z,9.69
2022-09-15T20:52:03.917Z,9.68
2022-09-15T20:54:30.844Z,9.68
2022-09-15T20:56:57.693Z,9.68
2022-09-15T20:59:25.721Z,9.67
2022-09-15T21:01:52.624Z,9.70
2022-09-15T21:04:20.101Z,9.73
2022-09-15T21:06:47.121Z,9.72
2022-09-15T21:09:14.157Z,9.74
2022-09-15T21:11:43.349Z,9.71
2022-09-15T21:14:14.258Z,9.71
2022-09-15T21:16:41.970Z,9.71
2022-09-15T21:19:09.638Z,9.69
2022-09-15T21:21:36.610Z,9.67
2022-09-15T21:24:06.656Z,9.66
2022-09-15T21:27:01.057Z,9.65
2022-09-15T21:29:29.100Z,9.69
2022-09-15T21:31:56.186Z,9.71
2022-09-15T21:34:23.976Z,9.64
2022-09-15T21:36:51.942Z,9.68
2022-09-15T21:39:19.072Z,9.75
2022-09-15T21:41:45.969Z,9.77
2022-09-15T21:44:12.972Z,9.82
2022-09-15T21:46:39.917Z,9.86
2022-09-15T21:49:06.814Z,9.85
2022-09-15T21:51:33.844Z,9.84
2022-09-15T21:54:00.855Z,9.82
2022-09-15T21:56:29.613Z,9.82
2022-09-15T21:58:57.067Z,9.81
2022-09-15T22:01:27.974Z,9.78
2022-09-15T22:04:03.531Z,9.79
2022-09-15T22:06:33.628Z,9.76
2022-09-15T22:09:06.054Z,9.75
2022-09-15T22:11:33.374Z,9.72
2022-09-15T22:14:03.138Z,9.76
2022-09-15T22:16:30.429Z,9.76
2022-09-15T22:18:57.651Z,9.74
2022-09-15T22:21:27.186Z,9.72
2022-09-15T22:23:56.450Z,9.70
2022-09-15T22:26:28.608Z,9.70
2022-09-15T22:28:56.471Z,9.67
2022-09-15T22:31:24.995Z,9.65
2022-09-15T22:33:52.812Z,9.64
2022-09-15T22:36:30.669Z,9.63
2022-09-15T22:39:05.847Z,9.62
2022-09-15T22:41:35.874Z,9.60
2022-09-15T22:44:04.062Z,9.59
2022-09-15T22:46:31.482Z,9.58
2022-09-15T22:48:58.639Z,9.56
2022-09-15T22:51:25.559Z,9.55
2022-09-15T22:53:54.718Z,9.55
2022-09-15T22:56:21.890Z,9.54
2022-09-15T22:58:49.814Z,9.52
2022-09-15T23:01:22.600Z,9.52
2022-09-15T23:03:51.681Z,9.51
2022-09-15T23:06:19.431Z,9.49
2022-09-15T23:08:56.810Z,9.48
2022-09-15T23:11:24.817Z,9.45
2022-09-15T23:13:53.358Z,9.46
2022-09-15T23:16:20.719Z,9.43
2022-09-15T23:18:48.389Z,9.42
2022-09-15T23:21:15.428Z,9.41
2022-09-15T23:23:44.397Z,9.39
2022-09-15T23:26:12.888Z,9.38
2022-09-15T23:28:40.207Z,9.37
2022-09-15T23:31:08.485Z,9.33
2022-09-15T23:33:35.520Z,9.35
2022-09-15T23:36:04.916Z,9.34
2022-09-15T23:38:35.750Z,9.31
2022-09-15T23:41:02.779Z,9.30
2022-09-15T23:43:29.963Z,9.29
2022-09-15T23:45:56.805Z,9.28
2022-09-15T23:48:23.845Z,9.26
2022-09-15T23:50:50.803Z,9.24
2022-09-15T23:53:18.708Z,9.25
2022-09-15T23:55:46.888Z,9.28
2022-09-15T23:58:13.850Z,9.35
